createdAt,value
2017-11-22T00:01:33.901Z,97.74
2017-11-22T00:04:01.461Z,97.91
2017-11-22T00:06:29.030Z,97.85
2017-11-22T00:08:56.590Z,98.34
2017-11-22T00:11:24.246Z,98.71
2017-11-22T00:13:51.841Z,98.78
2017-11-22T00:16:19.401Z,98.93
2017-11-22T00:18:46.962Z,98.94
2017-11-22T00:21:14.522Z,99.19
2017-11-22T00:23:42.089Z,99.13
2017-11-22T00:26:09.657Z,99.24
2017-11-22T00:28:37.226Z,99.27
2017-11-22T00:31:04.823Z,99.41
2017-11-22T00:33:32.395Z,99.25
2017-11-22T00:35:59.957Z,99.29
2017-11-22T00:38:27.520Z,99.31
2017-11-22T00:40:55.082Z,99.39
2017-11-22T00:43:22.649Z,99.19
2017-11-22T00:45:50.214Z,99.26
2017-11-22T00:48:17.775Z,99.27
2017-11-22T00:50:45.374Z,99.45
2017-11-22T00:53:12.933Z,98.71
2017-11-22T00:55:40.497Z,98.87
2017-11-22T00:58:08.056Z,99.19
2017-11-22T01:00:35.617Z,98.98
2017-11-22T01:03:03.222Z,99.11
2017-11-22T01:05:30.781Z,98.92
2017-11-22T01:07:58.335Z,98.12
2017-11-22T01:10:25.895Z,98.58
2017-11-22T01:12:53.453Z,98.29
2017-11-22T01:15:21.021Z,98.30
2017-11-22T01:17:48.575Z,98.42
2017-11-22T01:20:16.130Z,98.73
2017-11-22T01:22:43.701Z,98.40
2017-11-22T01:25:11.262Z,98.51
2017-11-22T01:27:38.821Z,98.71
2017-11-22T01:30:06.382Z,98.87
2017-11-22T01:32:33.980Z,98.21
2017-11-22T01:35:01.538Z,98.60
2017-11-22T01:37:29.098Z,98.51
2017-11-22T01:39:56.713Z,97.89
2017-11-22T01:42:24.278Z,98.37
2017-11-22T01:44:51.841Z,98.55
2017-11-22T01:47:19.412Z,98.77
2017-11-22T01:49:46.986Z,98.90
2017-11-22T01:52:14.544Z,98.97
2017-11-22T01:54:42.110Z,98.85
2017-11-22T01:57:09.713Z,99.14
2017-11-22T01:59:37.276Z,99.23
2017-11-22T02:02:04.841Z,98.98
2017-11-22T02:04:32.409Z,99.48
2017-11-22T02:06:59.984Z,99.39
2017-11-22T02:09:27.552Z,99.23
2017-11-22T02:11:55.118Z,99.56
2017-11-22T02:14:22.687Z,99.74
2017-11-22T02:16:50.244Z,99.74
2017-11-22T02:19:17.808Z,99.56
2017-11-22T02:21:46.275Z,99.70
2017-11-22T02:24:13.841Z,99.70
2017-11-22T02:26:41.404Z,99.67
2017-11-22T02:29:09.009Z,99.64
2017-11-22T02:31:36.575Z,99.66
2017-11-22T02:34:05.022Z,99.64
2017-11-22T02:36:32.585Z,99.27
2017-11-22T02:39:00.927Z,99.41
2017-11-22T02:41:29.291Z,99.52
2017-11-22T02:43:56.914Z,99.46
2017-11-22T02:46:24.488Z,98.79
2017-11-22T02:48:52.063Z,98.64
2017-11-22T02:51:20.526Z,98.79
2017-11-22T02:53:48.088Z,98.67
2017-11-22T02:56:15.712Z,98.23
2017-11-22T02:58:44.078Z,98.14
2017-11-22T03:01:12.458Z,97.85
2017-11-22T03:03:40.017Z,97.76
2017-11-22T03:06:07.626Z,97.50
2017-11-22T03:08:35.193Z,97.27
2017-11-22T03:11:02.753Z,96.94
2017-11-22T03:13:30.322Z,96.40
2017-11-22T03:15:57.932Z,96.63
2017-11-22T03:18:26.421Z,96.54
2017-11-22T03:20:53.980Z,96.59
2017-11-22T03:23:22.463Z,96.81
2017-11-22T03:25:50.026Z,96.66
2017-11-22T03:28:18.407Z,96.64
2017-11-22T03:30:46.791Z,96.69
2017-11-22T03:33:14.429Z,96.41
2017-11-22T03:35:41.995Z,96.36
2017-11-22T03:38:09.564Z,96.18
2017-11-22T03:40:37.129Z,96.19
2017-11-22T03:43:04.689Z,96.15
2017-11-22T03:45:32.253Z,95.78
2017-11-22T03:48:18.472Z,95.83
2017-11-22T03:50:51.777Z,95.76
2017-11-22T03:53:24.959Z,95.95
2017-11-22T03:55:52.525Z,96.14
2017-11-22T03:58:21.902Z,96.09
2017-11-22T04:00:49.665Z,96.33
2017-11-22T04:03:17.234Z,97.08
2017-11-22T04:05:57.536Z,96.48
2017-11-22T04:08:27.707Z,96.72
2017-11-22T04:10:55.280Z,96.41
2017-11-22T04:13:23.660Z,96.15
2017-11-22T04:15:51.221Z,95.98
2017-11-22T04:18:20.734Z,95.90
2017-11-22T04:20:53.850Z,95.53
2017-11-22T04:23:21.413Z,95.24
2017-11-22T04:25:48.976Z,95.28
2017-11-22T04:28:16.545Z,95.50
2017-11-22T04:30:44.109Z,95.55
2017-11-22T04:33:11.681Z,95.83
2017-11-22T04:35:40.056Z,95.15
2017-11-22T04:38:07.627Z,94.78
2017-11-22T04:40:35.194Z,95.07
2017-11-22T04:43:02.760Z,95.47
2017-11-22T04:45:31.255Z,95.10
2017-11-22T04:47:58.855Z,95.20
2017-11-22T04:50:27.226Z,94.96
2017-11-22T04:52:54.793Z,94.96
2017-11-22T04:55:23.254Z,94.47
2017-11-22T04:57:50.819Z,94.92
2017-11-22T05:00:18.397Z,94.86
2017-11-22T05:02:45.958Z,94.51
2017-11-22T05:05:14.468Z,94.20
2017-11-22T05:07:42.032Z,94.80
2017-11-22T05:10:09.596Z,94.52
2017-11-22T05:12:37.158Z,94.41
2017-11-22T05:15:05.645Z,94.12
2017-11-22T05:17:34.111Z,94.15
2017-11-22T05:20:02.477Z,93.87
2017-11-22T05:22:30.044Z,93.68
2017-11-22T05:24:57.606Z,94.14
2017-11-22T05:27:25.205Z,94.57
2017-11-22T05:29:52.775Z,93.51
2017-11-22T05:32:21.197Z,93.48
2017-11-22T05:34:49.565Z,93.54
2017-11-22T05:37:17.133Z,93.31
2017-11-22T05:39:45.615Z,93.02
2017-11-22T05:42:13.973Z,93.77
2017-11-22T05:44:41.553Z,94.26
2017-11-22T05:47:09.126Z,94.35
2017-11-22T05:49:36.696Z,94.54
2017-11-22T05:52:05.197Z,94.61
2017-11-22T05:54:32.814Z,94.85
2017-11-22T05:57:00.381Z,94.79
2017-11-22T05:59:27.941Z,94.58
2017-11-22T06:01:55.512Z,94.50
2017-11-22T06:04:23.077Z,94.15
2017-11-22T06:06:50.640Z,94.89
2017-11-22T06:09:18.246Z,95.03
2017-11-22T06:11:46.589Z,95.12
2017-11-22T06:14:14.150Z,94.95
2017-11-22T06:16:41.752Z,94.99
2017-11-22T06:19:09.434Z,95.02
2017-11-22T06:21:36.998Z,94.85
2017-11-22T06:24:04.559Z,95.10
2017-11-22T06:26:32.122Z,95.39
2017-11-22T06:28:59.677Z,95.09
2017-11-22T06:31:27.237Z,95.32
2017-11-22T06:33:54.837Z,95.01
2017-11-22T06:36:23.169Z,95.00
2017-11-22T06:38:51.386Z,95.64
2017-11-22T06:41:18.955Z,95.63
2017-11-22T06:43:46.517Z,95.49
2017-11-22T06:46:14.078Z,94.50
2017-11-22T06:48:41.642Z,94.45
2017-11-22T06:51:09.253Z,95.04
2017-11-22T06:53:36.823Z,94.43
2017-11-22T06:56:04.390Z,94.47
2017-11-22T06:58:32.760Z,94.25
2017-11-22T07:01:00.329Z,94.65
2017-11-22T07:06:21.649Z,95.11
2017-11-22T07:08:50.062Z,95.25
2017-11-22T07:11:18.648Z,95.33
2017-11-22T07:13:46.222Z,94.97
2017-11-22T07:16:19.538Z,94.98
2017-11-22T07:18:47.112Z,95.53
2017-11-22T07:21:14.679Z,96.12
2017-11-22T07:23:42.280Z,96.36
2017-11-22T07:26:10.623Z,95.85
2017-11-22T07:28:38.978Z,96.66
2017-11-22T07:31:13.985Z,96.72
2017-11-22T07:33:41.550Z,96.20
2017-11-22T07:36:14.750Z,96.35
2017-11-22T07:38:42.310Z,96.54
2017-11-22T07:41:10.649Z,96.70
2017-11-22T07:43:39.104Z,97.21
2017-11-22T07:46:10.534Z,96.90
2017-11-22T07:48:38.098Z,96.66
2017-11-22T07:51:12.234Z,96.35
2017-11-22T07:53:40.731Z,96.72
2017-11-22T07:56:09.105Z,96.62
2017-11-22T07:58:37.316Z,96.78
2017-11-22T08:01:04.919Z,96.34
2017-11-22T08:03:35.346Z,96.33
2017-11-22T08:06:02.931Z,96.67
2017-11-22T08:08:30.497Z,96.51
2017-11-22T08:10:58.056Z,96.25
2017-11-22T08:13:25.622Z,96.32
2017-11-22T08:15:53.182Z,96.36
2017-11-22T08:18:20.764Z,95.99
2017-11-22T08:20:50.147Z,95.84
2017-11-22T08:23:18.645Z,95.84
2017-11-22T08:25:46.250Z,95.45
2017-11-22T08:28:13.804Z,95.59
2017-11-22T08:30:43.197Z,95.18
2017-11-22T08:33:11.695Z,95.45
2017-11-22T08:35:39.262Z,94.68
2017-11-22T08:38:06.828Z,94.82
2017-11-22T08:40:35.373Z,94.36
2017-11-22T08:43:08.597Z,93.96
2017-11-22T08:45:36.162Z,94.04
2017-11-22T08:48:04.538Z,94.01
2017-11-22T08:50:32.116Z,94.35
2017-11-22T08:52:59.729Z,94.39
2017-11-22T08:55:32.813Z,93.63
2017-11-22T08:58:07.028Z,93.25
2017-11-22T09:00:34.585Z,93.25
2017-11-22T09:03:02.918Z,92.10
2017-11-22T09:05:31.394Z,92.82
2017-11-22T09:07:59.913Z,93.05
2017-11-22T09:10:27.469Z,91.41
2017-11-22T09:12:55.026Z,91.39
2017-11-22T09:15:22.586Z,91.38
2017-11-22T09:17:50.158Z,91.96
2017-11-22T09:20:19.026Z,91.33
2017-11-22T09:22:46.585Z,91.13
2017-11-22T09:25:16.821Z,90.31
2017-11-22T09:27:49.865Z,91.16
2017-11-22T09:30:19.680Z,92.16
2017-11-22T09:32:47.244Z,92.28
2017-11-22T09:35:16.652Z,91.51
2017-11-22T09:37:44.217Z,92.26
2017-11-22T09:40:11.782Z,91.84
2017-11-22T09:42:39.356Z,91.52
2017-11-22T09:45:06.921Z,92.48
2017-11-22T09:47:34.480Z,93.04
2017-11-22T09:50:02.045Z,93.34
2017-11-22T09:52:29.650Z,90.84
2017-11-22T09:54:57.230Z,90.81
2017-11-22T09:57:24.785Z,90.95
2017-11-22T09:59:52.349Z,90.54
2017-11-22T10:02:20.714Z,91.32
2017-11-22T10:04:48.286Z,89.86
2017-11-22T10:07:16.861Z,88.22
2017-11-22T10:09:44.433Z,89.93
2017-11-22T10:12:12.006Z,89.19
2017-11-22T10:14:39.564Z,88.40
2017-11-22T10:17:13.193Z,89.18
2017-11-22T10:22:46.187Z,88.09
2017-11-22T10:25:19.701Z,87.71
2017-11-22T10:27:47.321Z,89.01
2017-11-22T10:30:14.883Z,89.46
2017-11-22T10:32:48.058Z,89.85
2017-11-22T10:35:16.542Z,90.25
2017-11-22T10:37:44.111Z,88.67
2017-11-22T10:40:11.670Z,91.00
2017-11-22T10:42:39.385Z,89.43
2017-11-22T10:45:06.954Z,89.53
2017-11-22T10:47:34.518Z,90.39
2017-11-22T10:50:02.077Z,89.28
2017-11-22T10:52:29.637Z,88.92
2017-11-22T10:54:58.111Z,86.68
2017-11-22T10:57:25.675Z,85.44
2017-11-22T10:59:53.246Z,85.65
2017-11-22T11:02:20.821Z,85.52
2017-11-22T11:04:48.392Z,87.13
2017-11-22T11:07:15.969Z,86.14
2017-11-22T11:09:43.538Z,87.03
2017-11-22T11:12:11.159Z,85.26
2017-11-22T11:14:39.657Z,84.35
2017-11-22T11:17:07.241Z,84.51
2017-11-22T11:19:34.806Z,85.02
2017-11-22T11:22:03.206Z,86.58
2017-11-22T11:24:30.775Z,84.48
2017-11-22T11:26:59.241Z,82.89
2017-11-22T11:29:26.816Z,82.84
2017-11-22T11:31:54.385Z,84.62
2017-11-22T11:34:21.993Z,83.29
2017-11-22T11:36:50.354Z,83.86
2017-11-22T11:39:17.922Z,84.05
2017-11-22T11:41:45.489Z,85.19
2017-11-22T11:44:13.065Z,85.17
2017-11-22T11:46:40.635Z,83.64
2017-11-22T11:49:08.986Z,83.83
2017-11-22T11:51:36.554Z,85.70
2017-11-22T11:54:05.052Z,83.94
2017-11-22T11:56:32.621Z,84.52
2017-11-22T11:59:00.186Z,84.08
2017-11-22T12:01:27.761Z,84.24
2017-11-22T12:03:55.326Z,82.88
2017-11-22T12:06:22.895Z,84.72
2017-11-22T12:08:50.462Z,82.60
2017-11-22T12:11:18.029Z,83.56
2017-11-22T12:13:45.602Z,80.84
2017-11-22T12:16:13.209Z,83.28
2017-11-22T12:18:40.780Z,82.75
2017-11-22T12:21:10.188Z,82.18
2017-11-22T12:23:38.554Z,83.87
2017-11-22T12:26:06.127Z,82.35
2017-11-22T12:28:33.690Z,83.59
2017-11-22T12:31:01.298Z,82.92
2017-11-22T12:33:28.864Z,84.98
2017-11-22T12:35:56.430Z,82.97
2017-11-22T12:38:23.998Z,84.31
2017-11-22T12:40:51.581Z,85.17
2017-11-22T12:43:19.150Z,85.28
2017-11-22T12:45:46.715Z,83.62
2017-11-22T12:48:14.291Z,85.26
2017-11-22T12:50:41.854Z,86.57
2017-11-22T12:53:09.425Z,83.59
2017-11-22T12:55:36.985Z,82.67
2017-11-22T12:58:19.064Z,82.62
2017-11-22T13:00:46.630Z,83.16
2017-11-22T13:03:14.199Z,83.37
2017-11-22T13:05:43.574Z,84.19
2017-11-22T13:08:11.165Z,83.07
2017-11-22T13:10:45.255Z,84.08
2017-11-22T13:13:12.864Z,83.81
2017-11-22T13:15:40.433Z,84.14
2017-11-22T13:18:08.009Z,85.63
2017-11-22T13:20:35.574Z,85.45
2017-11-22T13:23:03.937Z,84.26
2017-11-22T13:25:31.554Z,85.97
2017-11-22T13:27:59.115Z,86.13
2017-11-22T13:30:26.685Z,85.83
2017-11-22T13:32:54.258Z,83.94
2017-11-22T13:35:22.594Z,83.25
2017-11-22T13:37:50.993Z,83.67
2017-11-22T13:40:21.214Z,82.60
2017-11-22T13:42:49.050Z,84.92
2017-11-22T13:45:17.518Z,83.97
2017-11-22T13:47:45.855Z,84.06
2017-11-22T13:50:14.197Z,85.82
2017-11-22T13:52:41.765Z,86.25
2017-11-22T13:55:10.230Z,87.03
2017-11-22T13:57:37.819Z,86.13
2017-11-22T14:00:05.384Z,87.05
2017-11-22T14:02:32.948Z,86.80
2017-11-22T14:05:01.314Z,86.34
2017-11-22T14:07:28.908Z,87.33
2017-11-22T14:09:56.475Z,87.81
2017-11-22T14:12:24.048Z,88.06
2017-11-22T14:14:51.609Z,88.22
2017-11-22T14:17:19.164Z,87.36
2017-11-22T14:19:46.730Z,86.46
2017-11-22T14:22:14.293Z,87.05
2017-11-22T14:24:41.861Z,86.42
2017-11-22T14:27:09.426Z,87.74
2017-11-22T14:29:36.988Z,87.88
2017-11-22T14:32:04.556Z,86.37
2017-11-22T14:34:32.117Z,86.65
2017-11-22T14:36:59.696Z,87.21
2017-11-22T14:39:28.125Z,87.47
2017-11-22T14:41:55.726Z,84.95
2017-11-22T14:44:24.058Z,86.52
2017-11-22T14:46:51.627Z,86.24
2017-11-22T14:49:20.111Z,86.72
2017-11-22T14:51:47.717Z,86.60
2017-11-22T14:54:15.282Z,85.61
2017-11-22T14:56:42.866Z,86.61
2017-11-22T14:59:10.424Z,86.53
2017-11-22T15:01:37.989Z,86.63
2017-11-22T15:04:05.610Z,85.83
2017-11-22T15:06:33.186Z,86.32
2017-11-22T15:09:00.748Z,86.37
2017-11-22T15:11:28.434Z,86.08
2017-11-22T15:13:56.928Z,86.87
2017-11-22T15:16:24.493Z,87.46
2017-11-22T15:18:52.892Z,89.07
2017-11-22T15:21:20.465Z,89.11
2017-11-22T15:23:48.061Z,87.32
2017-11-22T15:26:15.627Z,88.15
2017-11-22T15:28:43.217Z,86.79
2017-11-22T15:31:10.788Z,87.30
2017-11-22T15:33:38.366Z,86.35
2017-11-22T15:36:05.936Z,86.67
2017-11-22T15:38:33.517Z,86.37
2017-11-22T15:41:01.113Z,88.37
2017-11-22T15:43:28.677Z,87.97
2017-11-22T15:45:56.241Z,88.53
2017-11-22T15:48:23.803Z,87.61
2017-11-22T15:50:51.409Z,87.56
2017-11-22T15:53:18.985Z,88.09
2017-11-22T15:55:46.548Z,88.20
2017-11-22T15:58:14.128Z,88.69
2017-11-22T16:00:41.694Z,87.63
2017-11-22T16:03:09.258Z,87.51
2017-11-22T16:05:36.836Z,87.28
2017-11-22T16:08:04.440Z,86.96
2017-11-22T16:10:32.005Z,86.20
2017-11-22T16:12:59.592Z,86.16
2017-11-22T16:15:27.178Z,85.83
2017-11-22T16:17:54.745Z,85.71
2017-11-22T16:20:22.326Z,85.67
2017-11-22T16:22:50.801Z,85.60
2017-11-22T16:25:20.897Z,85.47
2017-11-22T16:27:48.629Z,86.30
2017-11-22T16:30:19.646Z,86.58
2017-11-22T16:32:47.230Z,86.45
2017-11-22T16:35:15.730Z,86.60
2017-11-22T16:37:43.283Z,86.59
2017-11-22T16:40:10.848Z,85.20
2017-11-22T16:42:38.413Z,86.50
2017-11-22T16:45:06.912Z,86.15
2017-11-22T16:47:35.373Z,86.75
2017-11-22T16:50:03.725Z,86.03
2017-11-22T16:52:31.330Z,85.60
2017-11-22T16:54:58.972Z,86.51
2017-11-22T16:57:26.590Z,86.95
2017-11-22T16:59:54.150Z,87.07
2017-11-22T17:02:22.632Z,88.22
2017-11-22T17:04:51.102Z,87.42
2017-11-22T17:07:18.681Z,86.67
2017-11-22T17:09:47.041Z,87.41
2017-11-22T17:12:15.518Z,86.18
2017-11-22T17:14:43.864Z,86.91
2017-11-22T17:17:12.231Z,87.08
2017-11-22T17:19:40.827Z,86.87
2017-11-22T17:22:08.393Z,86.69
2017-11-22T17:24:36.745Z,85.84
2017-11-22T17:27:04.858Z,85.47
2017-11-22T17:29:33.215Z,86.69
2017-11-22T17:32:02.214Z,85.76
2017-11-22T17:34:29.787Z,86.10
2017-11-22T17:36:57.355Z,86.87
2017-11-22T17:39:24.909Z,87.36
2017-11-22T17:41:52.466Z,85.07
2017-11-22T17:44:20.065Z,86.24
2017-11-22T17:46:47.631Z,86.65
2017-11-22T17:49:15.197Z,86.29
2017-11-22T17:51:42.762Z,86.99
2017-11-22T17:54:10.332Z,87.55
2017-11-22T17:56:37.932Z,86.67
2017-11-22T17:59:06.272Z,87.34
2017-11-22T18:01:34.326Z,88.35
2017-11-22T18:04:02.672Z,87.90
2017-11-22T18:06:30.243Z,87.87
2017-11-22T18:08:57.809Z,88.85
2017-11-22T18:11:25.372Z,89.60
2017-11-22T18:13:52.938Z,89.70
2017-11-22T18:16:20.550Z,89.43
2017-11-22T18:18:48.186Z,90.52
2017-11-22T18:21:15.759Z,89.12
2017-11-22T18:23:43.416Z,89.95
2017-11-22T18:26:10.975Z,90.13
2017-11-22T18:28:39.432Z,91.09
2017-11-22T18:31:07.777Z,91.16
2017-11-22T18:33:35.350Z,91.39
2017-11-22T18:36:02.922Z,92.36
2017-11-22T18:38:30.526Z,91.62
2017-11-22T18:40:58.109Z,92.39
2017-11-22T18:43:25.716Z,92.83
2017-11-22T18:45:53.280Z,92.43
2017-11-22T18:48:20.842Z,92.36
2017-11-22T18:50:49.235Z,92.37
2017-11-22T18:53:16.843Z,92.71
2017-11-22T18:55:44.405Z,92.70
2017-11-22T18:58:12.003Z,92.17
2017-11-22T19:00:39.598Z,92.14
2017-11-22T19:03:07.167Z,93.21
2017-11-22T19:05:34.734Z,93.18
2017-11-22T19:08:02.302Z,93.27
2017-11-22T19:10:29.867Z,92.82
2017-11-22T19:12:57.489Z,92.69
2017-11-22T19:15:25.122Z,92.99
2017-11-22T19:17:52.722Z,92.67
2017-11-22T19:20:20.300Z,92.70
2017-11-22T19:22:47.861Z,92.49
2017-11-22T19:25:15.440Z,92.59
2017-11-22T19:27:43.027Z,92.45
2017-11-22T19:30:10.648Z,92.97
2017-11-22T19:32:38.220Z,93.63
2017-11-22T19:35:05.799Z,94.17
2017-11-22T19:37:33.402Z,94.02
2017-11-22T19:40:00.971Z,93.42
2017-11-22T19:42:28.545Z,93.48
2017-11-22T19:44:56.110Z,93.96
2017-11-22T19:47:23.682Z,93.90
2017-11-22T19:49:51.246Z,93.90
2017-11-22T19:52:19.712Z,94.22
2017-11-22T19:54:47.309Z,94.02
2017-11-22T19:57:14.902Z,93.97
2017-11-22T19:59:42.533Z,93.73
2017-11-22T20:02:10.119Z,94.66
2017-11-22T20:04:37.687Z,94.88
2017-11-22T20:07:17.211Z,94.89
2017-11-22T20:09:44.850Z,94.65
2017-11-22T20:12:12.416Z,94.55
2017-11-22T20:14:40.812Z,94.30
2017-11-22T20:17:09.157Z,94.28
2017-11-22T20:19:36.938Z,94.81
2017-11-22T20:22:05.554Z,95.19
2017-11-22T20:24:33.470Z,94.76
2017-11-22T20:27:01.038Z,94.34
2017-11-22T20:29:28.656Z,94.71
2017-11-22T20:31:56.615Z,94.36
2017-11-22T20:34:25.876Z,93.84
2017-11-22T20:36:55.571Z,94.38
2017-11-22T20:39:23.494Z,94.33
2017-11-22T20:41:51.845Z,94.60
2017-11-22T20:44:19.864Z,94.50
2017-11-22T20:46:47.513Z,94.55
2017-11-22T20:49:15.074Z,94.63
2017-11-22T20:51:42.723Z,94.81
2017-11-22T20:54:10.297Z,94.62
2017-11-22T20:56:37.862Z,95.68
2017-11-22T20:59:05.435Z,94.98
2017-11-22T21:01:33.001Z,95.88
2017-11-22T21:04:00.585Z,95.54
2017-11-22T21:06:29.083Z,95.43
2017-11-22T21:08:57.472Z,96.03
2017-11-22T21:11:25.923Z,95.95
2017-11-22T21:13:53.489Z,95.96
2017-11-22T21:16:21.881Z,96.37
2017-11-22T21:18:49.447Z,96.10
2017-11-22T21:21:17.840Z,95.59
2017-11-22T21:23:46.224Z,95.52
2017-11-22T21:26:13.798Z,95.71
2017-11-22T21:28:42.117Z,96.74
2017-11-22T21:31:09.723Z,96.31
2017-11-22T21:33:37.354Z,95.88
2017-11-22T21:36:05.650Z,95.95
2017-11-22T21:38:33.242Z,96.88
2017-11-22T21:41:01.010Z,96.13
2017-11-22T21:43:28.586Z,95.75
2017-11-22T21:45:56.144Z,96.72
2017-11-22T21:48:23.753Z,96.13
2017-11-22T21:50:52.150Z,96.96
2017-11-22T21:53:20.666Z,96.68
2017-11-22T21:55:48.278Z,96.15
2017-11-22T21:58:16.739Z,96.08
2017-11-22T22:00:45.236Z,96.87
2017-11-22T22:03:13.600Z,96.60
2017-11-22T22:05:41.166Z,96.30
2017-11-22T22:08:08.735Z,96.26
2017-11-22T22:10:36.300Z,95.69
2017-11-22T22:13:03.885Z,95.59
2017-11-22T22:15:32.239Z,95.36
2017-11-22T22:18:00.610Z,95.40
2017-11-22T22:20:28.965Z,95.57
2017-11-22T22:22:56.542Z,95.53
2017-11-22T22:25:25.035Z,95.78
2017-11-22T22:27:53.401Z,95.79
2017-11-22T22:30:21.774Z,95.66
2017-11-22T22:32:50.158Z,95.74
2017-11-22T22:35:17.734Z,95.42
2017-11-22T22:37:46.243Z,95.63
2017-11-22T22:40:13.805Z,95.75
2017-11-22T22:42:42.169Z,96.09
2017-11-22T22:45:10.526Z,95.79
2017-11-22T22:47:38.886Z,95.80
2017-11-22T22:50:07.353Z,95.74
2017-11-22T22:52:35.821Z,96.02
2017-11-22T22:55:04.169Z,96.14
2017-11-22T22:57:31.790Z,96.26
2017-11-22T22:59:59.356Z,96.66
2017-11-22T23:02:26.922Z,96.52
2017-11-22T23:04:54.496Z,96.60
2017-11-22T23:07:22.894Z,96.54
2017-11-22T23:09:51.357Z,96.50
2017-11-22T23:12:18.917Z,96.43
2017-11-22T23:14:46.485Z,96.86
2017-11-22T23:17:15.026Z,96.65
2017-11-22T23:19:42.597Z,96.65
2017-11-22T23:22:10.188Z,96.32
2017-11-22T23:24:38.701Z,96.43
2017-11-22T23:27:07.036Z,96.66
2017-11-22T23:29:34.641Z,96.41
2017-11-22T23:32:02.206Z,96.53
2017-11-22T23:34:30.735Z,96.62
2017-11-22T23:36:59.068Z,96.67
2017-11-22T23:39:26.686Z,96.68
2017-11-22T23:41:54.288Z,96.65
2017-11-22T23:44:22.563Z,96.69
2017-11-22T23:46:50.833Z,96.97
2017-11-22T23:49:18.402Z,97.50
2017-11-22T23:51:46.659Z,97.28
2017-11-22T23:54:14.228Z,97.27
2017-11-22T23:56:42.201Z,97.27
2017-11-22T23:59:10.545Z,97.07
